Time;durP1;ratioP1;P1;durP2;ratioP2;P2;SDS_P1;SDS_P2;PMS_P1;PMS_P2;Temp;Humidity;BMP_temperature;BMP_pressure;BME280_temperature;BME280_humidity;BME280_pressure;Samples;Min_cycle;Max_cycle;Signal;HPM_P1;HPM_P2
2022/12/04 00:01:08;;;;;;;36.87;19.77;;;;;;;;;;5061187;28;20025;-76
2022/12/04 00:03:34;;;;;;;38.23;20.33;;;;;;;;;;5065680;28;20021;-76
2022/12/04 00:06:08;;;;;;;33.00;18.60;;;;;;;;;;5057743;28;20264;-78
2022/12/04 00:08:34;;;;;;;33.70;18.60;;;;;;;;;;5060846;28;20048;-77
2022/12/04 00:11:00;;;;;;;36.33;18.90;;;;;;;;;;5057695;28;20064;-77
2022/12/04 00:13:26;;;;;;;32.87;17.77;;;;;;;;;;5046850;28;20276;-77
2022/12/04 00:15:53;;;;;;;35.00;17.50;;;;;;;;;;5060290;28;21782;-77
2022/12/04 00:18:19;;;;;;;36.80;19.10;;;;;;;;;;5056018;28;20280;-77
2022/12/04 00:20:45;;;;;;;32.53;16.97;;;;;;;;;;5062567;28;20030;-76
2022/12/04 00:23:11;;;;;;;36.73;19.23;;;;;;;;;;5059868;28;20128;-77
2022/12/04 00:25:37;;;;;;;33.23;17.57;;;;;;;;;;5061808;28;20283;-77
2022/12/04 00:28:03;;;;;;;35.20;18.83;;;;;;;;;;5049507;28;20280;-77
2022/12/04 00:30:29;;;;;;;37.90;18.73;;;;;;;;;;5046408;28;20310;-78
2022/12/04 00:32:55;;;;;;;34.53;17.33;;;;;;;;;;5055897;28;20441;-77
2022/12/04 00:35:24;;;;;;;33.90;17.73;;;;;;;;;;5061614;28;20037;-76
2022/12/04 00:37:50;;;;;;;32.97;17.03;;;;;;;;;;5042511;28;20288;-77
2022/12/04 00:40:17;;;;;;;31.53;17.73;;;;;;;;;;5045231;28;20686;-78
2022/12/04 00:42:43;;;;;;;33.53;18.63;;;;;;;;;;5043240;28;20027;-79
2022/12/04 00:45:09;;;;;;;34.30;17.67;;;;;;;;;;5043946;28;20068;-79
2022/12/04 00:47:35;;;;;;;36.33;19.23;;;;;;;;;;5051354;28;20267;-77
2022/12/04 00:50:01;;;;;;;33.27;18.50;;;;;;;;;;5045498;28;20931;-77
2022/12/04 00:52:27;;;;;;;35.73;18.33;;;;;;;;;;5047612;28;20048;-77
2022/12/04 00:54:53;;;;;;;35.10;18.93;;;;;;;;;;5059779;28;20068;-78
2022/12/04 00:57:19;;;;;;;34.97;19.03;;;;;;;;;;5044693;28;20390;-78
2022/12/04 00:59:45;;;;;;;37.53;18.77;;;;;;;;;;5042819;28;20064;-78
2022/12/04 01:02:11;;;;;;;34.50;18.23;;;;;;;;;;5044202;28;20049;-79
2022/12/04 01:04:37;;;;;;;39.57;20.03;;;;;;;;;;5060229;28;20032;-77
2022/12/04 01:07:03;;;;;;;39.50;20.97;;;;;;;;;;5045975;28;20029;-77
2022/12/04 01:09:29;;;;;;;50.17;23.93;;;;;;;;;;5044771;28;20461;-76
2022/12/04 01:11:55;;;;;;;38.33;21.07;;;;;;;;;;5058852;28;20036;-77
2022/12/04 01:14:23;;;;;;;42.87;21.90;;;;;;;;;;5048046;28;20025;-78
2022/12/04 01:16:49;;;;;;;42.40;20.97;;;;;;;;;;5062568;28;20038;-78
2022/12/04 01:19:17;;;;;;;36.93;19.00;;;;;;;;;;5054224;28;20747;-78
2022/12/04 01:21:43;;;;;;;40.20;19.57;;;;;;;;;;5055425;28;20025;-77
2022/12/04 01:24:09;;;;;;;32.83;17.70;;;;;;;;;;5047682;28;20348;-78
2022/12/04 01:26:36;;;;;;;53.70;24.70;;;;;;;;;;5051993;28;20450;-79
2022/12/04 01:29:02;;;;;;;41.70;21.77;;;;;;;;;;5054328;28;20065;-78
2022/12/04 01:31:28;;;;;;;47.13;22.80;;;;;;;;;;5063152;28;20414;-76
2022/12/04 01:33:54;;;;;;;38.40;20.60;;;;;;;;;;5069379;28;20299;-78
2022/12/04 01:36:21;;;;;;;42.33;21.37;;;;;;;;;;5071330;28;20507;-79
2022/12/04 01:38:48;;;;;;;33.80;18.53;;;;;;;;;;5050399;28;20282;-79
2022/12/04 01:41:15;;;;;;;31.20;16.60;;;;;;;;;;5067105;28;20044;-78
2022/12/04 01:43:41;;;;;;;41.17;21.37;;;;;;;;;;5054420;28;20150;-78
2022/12/04 01:46:07;;;;;;;34.87;18.43;;;;;;;;;;5053433;28;20119;-79
2022/12/04 01:48:51;;;;;;;30.87;16.33;;;;;;;;;;5054550;28;20032;-79
2022/12/04 01:51:23;;;;;;;31.87;17.40;;;;;;;;;;5039568;28;20029;-79
2022/12/04 01:53:52;;;;;;;35.35;19.23;;;;;;;;;;5050373;28;20625;-78
2022/12/04 01:56:20;;;;;;;32.20;16.37;;;;;;;;;;5054977;28;20128;-79
2022/12/04 01:58:48;;;;;;;32.33;17.37;;;;;;;;;;5053407;28;20071;-78
2022/12/04 02:01:14;;;;;;;38.07;19.27;;;;;;;;;;5062340;28;20274;-78
2022/12/04 02:03:42;;;;;;;38.13;19.27;;;;;;;;;;5067697;28;20437;-78
2022/12/04 02:06:08;;;;;;;34.53;17.57;;;;;;;;;;5067924;28;20021;-77
2022/12/04 02:08:35;;;;;;;35.93;17.30;;;;;;;;;;5054574;28;20339;-78
2022/12/04 02:11:07;;;;;;;29.47;15.63;;;;;;;;;;5057674;28;20283;-78
2022/12/04 02:13:39;;;;;;;31.73;16.80;;;;;;;;;;5059531;28;20338;-79
2022/12/04 02:16:11;;;;;;;29.45;15.90;;;;;;;;;;5057970;28;20036;-78
2022/12/04 02:18:48;;;;;;;29.95;16.42;;;;;;;;;;5064667;28;20104;-78
2022/12/04 02:21:25;;;;;;;34.43;16.97;;;;;;;;;;5074595;28;20029;-78
2022/12/04 02:24:10;;;;;;;33.13;17.33;;;;;;;;;;5057370;28;20029;-78
2022/12/04 02:26:59;;;;;;;32.80;17.60;;;;;;;;;;5058288;28;20415;-78
2022/12/04 02:29:25;;;;;;;31.47;16.20;;;;;;;;;;5052081;28;20383;-78
2022/12/04 02:31:54;;;;;;;33.00;17.57;;;;;;;;;;5067451;28;20751;-77
2022/12/04 02:34:35;;;;;;;26.37;15.00;;;;;;;;;;5059082;28;20112;-79
2022/12/04 02:37:08;;;;;;;28.70;15.00;;;;;;;;;;5058395;28;20266;-78
2022/12/04 02:39:37;;;;;;;30.27;14.90;;;;;;;;;;5065576;28;20324;-78
2022/12/04 02:42:15;;;;;;;33.53;17.37;;;;;;;;;;5062790;28;20276;-79
2022/12/04 02:44:42;;;;;;;39.50;19.07;;;;;;;;;;5054321;28;20280;-77
2022/12/04 02:47:12;;;;;;;34.17;17.53;;;;;;;;;;5057183;28;20596;-76
2022/12/04 02:49:41;;;;;;;30.03;15.30;;;;;;;;;;5073900;28;20321;-79
2022/12/04 02:52:09;;;;;;;31.70;15.00;;;;;;;;;;5054086;28;20334;-78
2022/12/04 02:54:38;;;;;;;27.07;14.40;;;;;;;;;;5063838;28;20017;-79
2022/12/04 02:57:06;;;;;;;31.33;16.60;;;;;;;;;;5053854;28;20596;-78
2022/12/04 02:59:37;;;;;;;22.40;12.73;;;;;;;;;;5055967;28;20287;-78
2022/12/04 03:02:08;;;;;;;25.00;14.40;;;;;;;;;;5057278;28;20446;-79
2022/12/04 03:04:35;;;;;;;27.80;15.00;;;;;;;;;;5057035;28;20603;-78
2022/12/04 03:07:08;;;;;;;26.13;14.43;;;;;;;;;;5057725;28;20021;-78
2022/12/04 03:09:34;;;;;;;23.07;12.20;;;;;;;;;;5052805;28;20275;-79
2022/12/04 03:12:05;;;;;;;22.43;12.17;;;;;;;;;;5057199;28;20274;-79
2022/12/04 03:14:33;;;;;;;21.20;12.23;;;;;;;;;;5055850;28;20032;-78
2022/12/04 03:17:06;;;;;;;22.13;12.23;;;;;;;;;;5056737;28;20283;-79
2022/12/04 03:19:53;;;;;;;19.38;10.75;;;;;;;;;;5056648;28;20519;-79
2022/12/04 03:22:22;;;;;;;16.40;9.87;;;;;;;;;;5057637;28;20445;-78
2022/12/04 03:24:50;;;;;;;21.70;10.97;;;;;;;;;;5057393;28;20268;-79
2022/12/04 03:27:19;;;;;;;19.73;10.77;;;;;;;;;;5058005;28;20272;-78
2022/12/04 03:29:48;;;;;;;23.50;12.07;;;;;;;;;;5056905;28;20264;-77
2022/12/04 03:32:17;;;;;;;20.57;10.13;;;;;;;;;;5063657;28;20267;-78
2022/12/04 03:34:50;;;;;;;21.57;10.87;;;;;;;;;;5056847;28;20275;-78
2022/12/04 03:37:24;;;;;;;19.17;10.33;;;;;;;;;;5078853;28;20279;-77
2022/12/04 03:40:08;;;;;;;20.00;11.30;;;;;;;;;;5062945;28;20283;-78
2022/12/04 03:42:49;;;;;;;20.97;11.53;;;;;;;;;;5067989;28;20291;-79
2022/12/04 03:45:23;;;;;;;20.13;10.73;;;;;;;;;;5055406;28;20503;-78
2022/12/04 03:47:58;;;;;;;21.73;11.33;;;;;;;;;;5070665;28;20259;-79
2022/12/04 03:50:30;;;;;;;18.43;11.23;;;;;;;;;;5062700;28;20396;-79
2022/12/04 03:53:00;;;;;;;20.00;11.10;;;;;;;;;;5063854;28;20286;-79
2022/12/04 03:55:28;;;;;;;19.40;10.47;;;;;;;;;;5056419;28;20331;-78
2022/12/04 03:57:58;;;;;;;19.93;10.40;;;;;;;;;;5056398;28;20291;-78
2022/12/04 04:00:24;;;;;;;18.00;10.43;;;;;;;;;;5061843;28;20017;-79
2022/12/04 04:03:12;;;;;;;18.30;10.23;;;;;;;;;;5079737;28;20273;-78
2022/12/04 04:05:42;;;;;;;16.43;9.07;;;;;;;;;;5056244;28;20268;-78
2022/12/04 04:08:28;;;;;;;17.17;9.97;;;;;;;;;;5038287;28;20284;-77
2022/12/04 04:10:57;;;;;;;15.70;9.17;;;;;;;;;;5056516;28;20267;-78
2022/12/04 04:24:36;;;;;;;17.53;9.93;;;;;;;;;;5057274;28;20314;-78
2022/12/04 04:27:02;;;;;;;19.27;10.80;;;;;;;;;;5055303;28;20374;-79
2022/12/04 04:29:28;;;;;;;15.90;9.10;;;;;;;;;;5056691;28;20279;-79
2022/12/04 04:32:13;;;;;;;18.60;9.60;;;;;;;;;;5055593;28;20263;-78
2022/12/04 04:34:39;;;;;;;17.53;9.80;;;;;;;;;;5056216;28;20052;-78
2022/12/04 04:37:11;;;;;;;18.77;10.30;;;;;;;;;;5069397;28;20929;-78
2022/12/04 04:39:43;;;;;;;16.90;9.68;;;;;;;;;;5062480;28;20083;-78
2022/12/04 04:42:14;;;;;;;16.95;10.40;;;;;;;;;;5054897;28;20052;-79
2022/12/04 04:44:43;;;;;;;18.13;10.20;;;;;;;;;;5063816;28;20108;-79
2022/12/04 04:47:13;;;;;;;22.07;10.97;;;;;;;;;;5053977;28;20291;-79
2022/12/04 04:49:40;;;;;;;17.53;11.13;;;;;;;;;;5055638;28;20275;-77
2022/12/04 04:52:06;;;;;;;16.67;10.20;;;;;;;;;;5055176;28;20264;-78
2022/12/04 04:54:33;;;;;;;18.93;10.97;;;;;;;;;;5056831;28;20051;-79
2022/12/04 04:56:59;;;;;;;19.27;11.17;;;;;;;;;;5047854;28;20715;-78
2022/12/04 04:59:25;;;;;;;17.23;10.13;;;;;;;;;;5053808;28;20287;-78
2022/12/04 05:01:51;;;;;;;18.97;11.20;;;;;;;;;;5055313;28;20049;-78
2022/12/04 05:04:17;;;;;;;20.10;11.23;;;;;;;;;;5056411;28;20926;-79
2022/12/04 05:06:43;;;;;;;18.90;11.20;;;;;;;;;;5062195;28;20028;-79
2022/12/04 05:09:09;;;;;;;19.83;10.83;;;;;;;;;;5060880;28;20029;-78
2022/12/04 05:11:37;;;;;;;18.13;11.07;;;;;;;;;;5055290;28;20494;-78
2022/12/04 05:14:08;;;;;;;19.73;11.67;;;;;;;;;;5054021;28;20111;-77
2022/12/04 05:16:34;;;;;;;21.67;11.97;;;;;;;;;;5054035;28;20706;-77
2022/12/04 05:21:44;;;;;;;17.97;10.90;;;;;;;;;;5049495;28;20616;-77
2022/12/04 05:24:10;;;;;;;22.30;12.70;;;;;;;;;;5055294;28;20259;-80
2022/12/04 05:26:36;;;;;;;22.77;12.33;;;;;;;;;;5054955;28;20339;-78
2022/12/04 05:29:05;;;;;;;20.00;12.20;;;;;;;;;;5059227;28;20032;-78
2022/12/04 05:31:31;;;;;;;18.63;11.33;;;;;;;;;;5047939;28;20281;-77
2022/12/04 05:33:57;;;;;;;18.47;10.83;;;;;;;;;;5054937;28;20350;-78
2022/12/04 05:36:23;;;;;;;18.17;11.50;;;;;;;;;;5046996;28;20039;-78
2022/12/04 05:38:49;;;;;;;18.73;12.23;;;;;;;;;;5054312;28;20356;-78
2022/12/04 05:41:15;;;;;;;21.63;12.00;;;;;;;;;;5055206;28;20741;-80
2022/12/04 05:43:41;;;;;;;21.40;11.70;;;;;;;;;;5075632;28;20063;-78
2022/12/04 05:46:09;;;;;;;18.17;10.43;;;;;;;;;;5051425;28;20292;-79
2022/12/04 05:48:35;;;;;;;22.23;11.60;;;;;;;;;;5051442;28;20032;-78
2022/12/04 05:51:08;;;;;;;21.50;11.47;;;;;;;;;;5067167;28;20284;-79
2022/12/04 05:53:34;;;;;;;;;;;;;;;;;;5053211;28;20326;-79
2022/12/04 05:56:01;;;;;;;19.93;10.67;;;;;;;;;;5055579;28;19995;-77
2022/12/04 05:58:27;;;;;;;19.23;11.20;;;;;;;;;;5054477;28;20033;-78
2022/12/04 06:00:55;;;;;;;20.30;11.53;;;;;;;;;;5063939;28;20259;-79
2022/12/04 06:03:22;;;;;;;21.57;11.77;;;;;;;;;;5049329;28;20600;-79
2022/12/04 06:05:48;;;;;;;21.30;11.50;;;;;;;;;;5056135;28;20270;-78
2022/12/04 06:08:14;;;;;;;20.33;11.27;;;;;;;;;;5051785;28;20275;-78
2022/12/04 06:10:40;;;;;;;16.23;9.63;;;;;;;;;;5067065;28;20326;-77
2022/12/04 06:13:06;;;;;;;16.03;9.77;;;;;;;;;;5054367;28;20025;-78
2022/12/04 06:15:36;;;;;;;16.63;9.77;;;;;;;;;;5054260;28;20396;-78
2022/12/04 06:18:04;;;;;;;18.67;10.27;;;;;;;;;;5054790;28;20739;-76
2022/12/04 06:20:30;;;;;;;20.20;9.83;;;;;;;;;;5047437;28;20268;-78
2022/12/04 06:22:56;;;;;;;18.47;10.37;;;;;;;;;;5058215;28;20270;-78
2022/12/04 06:25:24;;;;;;;17.83;9.90;;;;;;;;;;5055398;28;20036;-79
2022/12/04 06:27:51;;;;;;;17.77;9.80;;;;;;;;;;5066542;28;20041;-78
2022/12/04 06:30:17;;;;;;;15.90;9.37;;;;;;;;;;5055250;28;20588;-78
2022/12/04 06:32:43;;;;;;;16.27;9.67;;;;;;;;;;5047525;28;20259;-78
2022/12/04 06:35:09;;;;;;;18.60;10.07;;;;;;;;;;5059500;28;20020;-78
2022/12/04 06:37:40;;;;;;;17.63;9.50;;;;;;;;;;5065346;28;20029;-79
2022/12/04 06:40:06;;;;;;;18.97;10.57;;;;;;;;;;5057098;28;20318;-79
2022/12/04 06:42:32;;;;;;;15.33;8.87;;;;;;;;;;5054077;28;20266;-79
2022/12/04 06:44:58;;;;;;;16.33;10.17;;;;;;;;;;5052504;28;20256;-77
2022/12/04 06:47:24;;;;;;;18.03;10.27;;;;;;;;;;5054943;28;20075;-78
2022/12/04 06:49:50;;;;;;;15.80;9.83;;;;;;;;;;5054560;28;20035;-78
2022/12/04 06:52:16;;;;;;;16.13;9.47;;;;;;;;;;5060532;28;20461;-78
2022/12/04 06:54:42;;;;;;;16.43;9.23;;;;;;;;;;5062669;28;20404;-78
2022/12/04 06:57:08;;;;;;;17.03;10.03;;;;;;;;;;5068475;28;20655;-78
2022/12/04 06:59:34;;;;;;;16.37;10.23;;;;;;;;;;5053869;28;20033;-78
2022/12/04 07:02:00;;;;;;;18.67;9.87;;;;;;;;;;5056185;28;20260;-78
2022/12/04 07:04:26;;;;;;;18.73;10.60;;;;;;;;;;5058622;28;20040;-80
2022/12/04 07:06:54;;;;;;;19.43;11.13;;;;;;;;;;5060609;28;20087;-78
2022/12/04 07:09:20;;;;;;;17.43;10.30;;;;;;;;;;5054340;28;20052;-78
2022/12/04 07:11:46;;;;;;;20.50;11.33;;;;;;;;;;5057134;28;20270;-78
2022/12/04 07:14:13;;;;;;;16.20;10.37;;;;;;;;;;5064796;28;20263;-78
2022/12/04 07:16:42;;;;;;;17.40;9.97;;;;;;;;;;5060240;28;20124;-78
2022/12/04 07:19:09;;;;;;;16.80;9.87;;;;;;;;;;5079837;28;20773;-79
2022/12/04 07:21:35;;;;;;;17.63;10.33;;;;;;;;;;5057449;28;20263;-80
2022/12/04 07:24:01;;;;;;;18.37;10.20;;;;;;;;;;5057851;28;20255;-79
2022/12/04 07:26:28;;;;;;;17.07;10.23;;;;;;;;;;5058716;28;20021;-80
2022/12/04 07:28:54;;;;;;;16.07;9.67;;;;;;;;;;5063482;28;20271;-80
2022/12/04 07:31:22;;;;;;;18.83;10.33;;;;;;;;;;5056907;28;20705;-79
2022/12/04 07:33:48;;;;;;;16.03;9.30;;;;;;;;;;5061614;28;20731;-79
2022/12/04 07:36:15;;;;;;;18.27;9.63;;;;;;;;;;5069566;28;20263;-78
2022/12/04 07:38:41;;;;;;;15.77;10.00;;;;;;;;;;5047713;28;20283;-80
2022/12/04 07:41:08;;;;;;;16.47;9.37;;;;;;;;;;5052999;28;20302;-78
2022/12/04 07:43:34;;;;;;;18.87;10.77;;;;;;;;;;5057173;28;20268;-80
2022/12/04 07:46:08;;;;;;;20.93;11.00;;;;;;;;;;5066513;28;20275;-80
2022/12/04 07:48:34;;;;;;;19.50;10.87;;;;;;;;;;5056563;28;20255;-79
2022/12/04 07:51:04;;;;;;;19.90;10.63;;;;;;;;;;5083511;28;20310;-81
2022/12/04 07:53:30;;;;;;;17.47;10.10;;;;;;;;;;5048706;28;20297;-78
2022/12/04 07:55:56;;;;;;;18.73;11.07;;;;;;;;;;5047579;28;20712;-77
2022/12/04 07:58:24;;;;;;;20.00;11.73;;;;;;;;;;5057296;28;20798;-78
2022/12/04 08:00:50;;;;;;;18.87;10.73;;;;;;;;;;5053652;28;20257;-77
2022/12/04 08:03:19;;;;;;;22.80;13.07;;;;;;;;;;5068284;28;20274;-78
2022/12/04 08:05:47;;;;;;;21.90;12.03;;;;;;;;;;5054004;28;20021;-78
2022/12/04 08:08:13;;;;;;;19.60;12.20;;;;;;;;;;5054588;28;20723;-77
2022/12/04 08:10:40;;;;;;;18.63;11.93;;;;;;;;;;5050345;28;20757;-78
2022/12/04 08:13:06;;;;;;;16.93;10.07;;;;;;;;;;5058772;28;20256;-77
2022/12/04 08:15:33;;;;;;;16.83;10.03;;;;;;;;;;5063729;28;20888;-80
2022/12/04 08:17:59;;;;;;;20.80;11.17;;;;;;;;;;5055351;28;20347;-78
2022/12/04 08:20:25;;;;;;;18.53;11.13;;;;;;;;;;5052048;28;20303;-77
2022/12/04 08:22:51;;;;;;;20.50;11.43;;;;;;;;;;5067589;28;20299;-78
2022/12/04 08:25:19;;;;;;;19.97;11.80;;;;;;;;;;5053365;28;20271;-78
2022/12/04 08:27:46;;;;;;;18.80;10.97;;;;;;;;;;5073340;28;20261;-77
2022/12/04 08:30:13;;;;;;;18.80;10.83;;;;;;;;;;5051613;28;20267;-78
2022/12/04 08:32:39;;;;;;;21.53;11.87;;;;;;;;;;5068629;28;20256;-77
2022/12/04 08:35:05;;;;;;;17.07;10.07;;;;;;;;;;5051512;28;20263;-78
2022/12/04 08:37:31;;;;;;;18.83;10.30;;;;;;;;;;5052547;28;20260;-77
2022/12/04 08:39:57;;;;;;;18.30;10.53;;;;;;;;;;5054460;28;20814;-81
2022/12/04 08:42:23;;;;;;;18.17;10.70;;;;;;;;;;5054588;28;20278;-78
2022/12/04 08:44:49;;;;;;;19.57;11.00;;;;;;;;;;5054341;28;20279;-77
2022/12/04 08:47:15;;;;;;;18.43;11.47;;;;;;;;;;5056512;28;20333;-79
2022/12/04 08:49:41;;;;;;;19.87;11.07;;;;;;;;;;5052812;28;20276;-79
2022/12/04 08:52:07;;;;;;;18.83;10.77;;;;;;;;;;5061921;28;20272;-77
2022/12/04 08:54:33;;;;;;;18.00;11.20;;;;;;;;;;5053621;28;20286;-78
2022/12/04 08:56:59;;;;;;;18.97;11.00;;;;;;;;;;5070714;28;20279;-77
2022/12/04 08:59:26;;;;;;;17.20;10.10;;;;;;;;;;5048899;28;20303;-78
2022/12/04 09:01:54;;;;;;;18.93;11.57;;;;;;;;;;5067679;28;20268;-77
2022/12/04 09:04:20;;;;;;;21.73;11.77;;;;;;;;;;5054751;28;20282;-75
2022/12/04 09:06:46;;;;;;;17.80;10.77;;;;;;;;;;5051474;28;20347;-77
2022/12/04 09:09:12;;;;;;;20.60;10.77;;;;;;;;;;5053388;28;20270;-78
2022/12/04 09:11:38;;;;;;;17.80;11.10;;;;;;;;;;5051848;28;20292;-77
2022/12/04 09:14:04;;;;;;;21.07;11.33;;;;;;;;;;5068040;28;20306;-78
2022/12/04 09:16:33;;;;;;;18.30;11.20;;;;;;;;;;5057292;28;20330;-78
2022/12/04 09:18:59;;;;;;;18.17;10.93;;;;;;;;;;5054768;28;20294;-77
2022/12/04 09:21:28;;;;;;;18.53;11.17;;;;;;;;;;5051226;28;20264;-76
2022/12/04 09:23:58;;;;;;;17.63;10.07;;;;;;;;;;5052863;28;20272;-76
2022/12/04 09:26:29;;;;;;;17.33;10.77;;;;;;;;;;5048576;28;20256;-77
2022/12/04 09:28:56;;;;;;;19.00;10.40;;;;;;;;;;5055444;28;20977;-77
2022/12/04 09:31:22;;;;;;;18.90;11.27;;;;;;;;;;5051810;28;20302;-78
2022/12/04 09:33:49;;;;;;;17.53;10.63;;;;;;;;;;5058803;28;20317;-79
2022/12/04 09:36:15;;;;;;;18.23;11.27;;;;;;;;;;5051521;28;20283;-78
2022/12/04 09:38:43;;;;;;;17.67;11.00;;;;;;;;;;5053622;28;20287;-78
2022/12/04 09:41:21;;;;;;;18.63;10.60;;;;;;;;;;5047348;28;20612;-78
2022/12/04 09:43:57;;;;;;;20.90;12.23;;;;;;;;;;5047153;28;20287;-76
2022/12/04 09:46:35;;;;;;;18.80;10.73;;;;;;;;;;5051228;28;20348;-78
2022/12/04 09:49:13;;;;;;;19.57;11.30;;;;;;;;;;5058120;28;21032;-75
2022/12/04 09:51:41;;;;;;;20.47;11.47;;;;;;;;;;5068338;28;20264;-77
2022/12/04 09:54:12;;;;;;;19.03;11.10;;;;;;;;;;5051913;28;20279;-74
2022/12/04 09:56:39;;;;;;;17.27;10.40;;;;;;;;;;5062393;28;20302;-77
2022/12/04 09:59:16;;;;;;;20.70;11.13;;;;;;;;;;5047870;28;20291;-75
2022/12/04 10:02:01;;;;;;;23.00;11.10;;;;;;;;;;5067374;28;20282;-77
2022/12/04 10:04:27;;;;;;;19.13;11.87;;;;;;;;;;5050522;28;20954;-78
2022/12/04 10:07:16;;;;;;;19.27;11.63;;;;;;;;;;5052940;28;20274;-76
2022/12/04 10:09:48;;;;;;;17.87;10.77;;;;;;;;;;5049550;28;20280;-76
2022/12/04 10:12:32;;;;;;;18.63;10.73;;;;;;;;;;5077406;28;20248;-77
2022/12/04 10:15:20;;;;;;;20.17;11.63;;;;;;;;;;5054327;28;20025;-78
2022/12/04 10:18:00;;;;;;;19.23;10.73;;;;;;;;;;5055404;28;20629;-77
2022/12/04 10:20:38;;;;;;;19.77;10.93;;;;;;;;;;5054667;28;20029;-75
2022/12/04 10:23:14;;;;;;;22.27;13.03;;;;;;;;;;5043520;28;20299;-78
2022/12/04 10:25:42;;;;;;;19.20;11.20;;;;;;;;;;5045868;28;20252;-77
2022/12/04 10:28:38;;;;;;;24.13;13.07;;;;;;;;;;5057948;28;20255;-76
2022/12/04 10:31:05;;;;;;;19.00;11.20;;;;;;;;;;5040986;28;20248;-78
2022/12/04 10:33:41;;;;;;;19.57;12.00;;;;;;;;;;5055252;28;20283;-78
2022/12/04 10:36:13;;;;;;;20.63;11.57;;;;;;;;;;5055649;28;20338;-77
2022/12/04 10:38:51;;;;;;;18.63;11.13;;;;;;;;;;5061600;28;20287;-77
2022/12/04 10:41:18;;;;;;;21.63;11.53;;;;;;;;;;5062330;28;20275;-77
2022/12/04 10:44:00;;;;;;;18.77;11.17;;;;;;;;;;5061901;28;20322;-77
2022/12/04 10:46:28;;;;;;;19.43;11.10;;;;;;;;;;5064975;28;20267;-78
2022/12/04 10:49:17;;;;;;;20.50;11.73;;;;;;;;;;5063931;28;20037;-78
2022/12/04 10:51:45;;;;;;;19.80;11.83;;;;;;;;;;5046412;28;20037;-78
2022/12/04 10:54:33;;;;;;;20.07;10.97;;;;;;;;;;5055357;28;20087;-77
2022/12/04 10:57:09;;;;;;;20.43;11.37;;;;;;;;;;5055221;28;20274;-77
2022/12/04 10:59:38;;;;;;;17.87;11.17;;;;;;;;;;5054510;28;20045;-77
2022/12/04 11:02:23;;;;;;;18.57;10.70;;;;;;;;;;5053610;28;20902;-78
2022/12/04 11:05:03;;;;;;;22.87;12.40;;;;;;;;;;5060062;28;20279;-77
2022/12/04 11:07:31;;;;;;;19.87;11.30;;;;;;;;;;5050259;28;20329;-76
2022/12/04 11:10:05;;;;;;;18.77;11.63;;;;;;;;;;5059179;28;20260;-79
2022/12/04 11:12:33;;;;;;;20.33;12.23;;;;;;;;;;5071295;28;20266;-78
2022/12/04 11:15:00;;;;;;;20.43;12.40;;;;;;;;;;5057054;28;20275;-78
2022/12/04 11:17:32;;;;;;;19.10;11.83;;;;;;;;;;5049896;28;20028;-76
2022/12/04 11:20:03;;;;;;;18.87;11.50;;;;;;;;;;5056489;28;20655;-77
2022/12/04 11:22:37;;;;;;;17.40;10.50;;;;;;;;;;5060933;28;20167;-77
2022/12/04 11:25:03;;;;;;;18.60;11.50;;;;;;;;;;5061840;28;20462;-75
2022/12/04 11:27:36;;;;;;;16.47;10.40;;;;;;;;;;5048580;28;20106;-78
2022/12/04 11:30:10;;;;;;;18.23;11.53;;;;;;;;;;5048355;28;20056;-78
2022/12/04 11:32:37;;;;;;;17.93;10.03;;;;;;;;;;5066774;28;20024;-78
2022/12/04 11:35:12;;;;;;;17.10;10.73;;;;;;;;;;5045415;28;20120;-75
2022/12/04 11:37:38;;;;;;;17.87;10.27;;;;;;;;;;5060277;28;20152;-76
2022/12/04 11:40:06;;;;;;;18.80;10.57;;;;;;;;;;5047224;28;20036;-76
2022/12/04 11:42:35;;;;;;;18.30;11.40;;;;;;;;;;5063196;28;20029;-76
2022/12/04 11:45:01;;;;;;;23.27;12.73;;;;;;;;;;5050185;28;20025;-78
2022/12/04 11:47:29;;;;;;;19.67;11.17;;;;;;;;;;5046963;28;20071;-77
2022/12/04 11:50:05;;;;;;;18.73;11.33;;;;;;;;;;5063439;28;20044;-77
2022/12/04 11:52:53;;;;;;;17.47;10.60;;;;;;;;;;5044042;28;20029;-76
2022/12/04 11:55:28;;;;;;;20.80;11.63;;;;;;;;;;5047374;28;20076;-76
2022/12/04 11:58:09;;;;;;;19.47;11.93;;;;;;;;;;5048293;28;20036;-77
2022/12/04 12:00:39;;;;;;;19.20;11.40;;;;;;;;;;5058804;28;20029;-76
2022/12/04 12:03:14;;;;;;;17.10;11.13;;;;;;;;;;5045120;28;20029;-77
2022/12/04 12:05:59;;;;;;;19.90;12.27;;;;;;;;;;5061616;28;20104;-76
2022/12/04 12:08:41;;;;;;;20.80;12.00;;;;;;;;;;5049226;28;20114;-75
2022/12/04 12:11:16;;;;;;;19.90;11.47;;;;;;;;;;5044313;28;20025;-75
2022/12/04 12:13:42;;;;;;;16.60;10.73;;;;;;;;;;5040292;28;20017;-74
2022/12/04 12:16:11;;;;;;;16.80;11.50;;;;;;;;;;5054326;28;20025;-76
2022/12/04 12:18:43;;;;;;;21.67;12.60;;;;;;;;;;5055821;28;20167;-75
2022/12/04 12:21:24;;;;;;;23.38;11.30;;;;;;;;;;5057512;28;20033;-76
2022/12/04 12:24:01;;;;;;;20.00;11.37;;;;;;;;;;5057493;28;20025;-71
2022/12/04 12:26:32;;;;;;;19.00;11.37;;;;;;;;;;5057954;28;20305;-76
2022/12/04 12:29:09;;;;;;;19.93;11.03;;;;;;;;;;5054879;28;21365;-74
2022/12/04 12:31:41;;;;;;;19.40;11.43;;;;;;;;;;5058061;28;20044;-76
2022/12/04 12:34:37;;;;;;;21.95;12.00;;;;;;;;;;5057505;28;20095;-74
2022/12/04 12:37:14;;;;;;;23.23;11.67;;;;;;;;;;5031361;28;20249;-79
2022/12/04 12:39:42;;;;;;;17.70;10.60;;;;;;;;;;5045799;28;20032;-76
2022/12/04 12:42:17;;;;;;;16.70;10.13;;;;;;;;;;5039806;28;20628;-74
2022/12/04 12:45:04;;;;;;;19.67;11.67;;;;;;;;;;5052516;28;20024;-76
2022/12/04 12:47:34;;;;;;;21.30;12.80;;;;;;;;;;5044035;28;20034;-75
2022/12/04 12:50:00;;;;;;;17.93;11.20;;;;;;;;;;5053321;28;20393;-75
2022/12/04 12:52:45;;;;;;;20.97;12.90;;;;;;;;;;5056252;28;20060;-75
2022/12/04 12:55:22;;;;;;;17.33;10.80;;;;;;;;;;5042305;28;20029;-76
2022/12/04 12:58:05;;;;;;;20.13;11.33;;;;;;;;;;5044818;28;20072;-76
2022/12/04 13:00:35;;;;;;;18.90;10.97;;;;;;;;;;5047497;28;20044;-76
2022/12/04 13:03:11;;;;;;;22.30;11.60;;;;;;;;;;5045789;28;20280;-75
2022/12/04 13:05:40;;;;;;;19.73;11.63;;;;;;;;;;5058150;28;20470;-75
2022/12/04 13:08:14;;;;;;;20.53;11.83;;;;;;;;;;5038570;28;20310;-75
2022/12/04 13:10:43;;;;;;;20.43;11.17;;;;;;;;;;5043088;28;20037;-75
2022/12/04 13:13:16;;;;;;;20.27;12.13;;;;;;;;;;5058206;28;20296;-76
2022/12/04 13:15:51;;;;;;;20.67;10.87;;;;;;;;;;5065872;28;20924;-76
2022/12/04 13:18:28;;;;;;;19.47;11.13;;;;;;;;;;5054983;28;20328;-75
2022/12/04 13:20:57;;;;;;;20.33;11.37;;;;;;;;;;5071535;28;20079;-75
2022/12/04 13:23:35;;;;;;;18.70;10.97;;;;;;;;;;5054844;28;20272;-75
2022/12/04 13:26:01;;;;;;;22.57;11.80;;;;;;;;;;5054873;28;20267;-75
2022/12/04 13:28:39;;;;;;;19.97;11.20;;;;;;;;;;5054813;28;20283;-75
2022/12/04 13:31:27;;;;;;;18.03;10.93;;;;;;;;;;5058320;28;20397;-75
2022/12/04 13:34:02;;;;;;;20.40;11.60;;;;;;;;;;5044998;28;20349;-75
2022/12/04 13:36:39;;;;;;;19.47;10.83;;;;;;;;;;5044991;28;20359;-75
2022/12/04 13:39:11;;;;;;;20.77;11.60;;;;;;;;;;5049291;28;20288;-76
2022/12/04 13:41:38;;;;;;;22.23;12.20;;;;;;;;;;5044779;28;20028;-75
2022/12/04 13:44:13;;;;;;;22.47;12.10;;;;;;;;;;5044103;28;20025;-76
2022/12/04 13:46:41;;;;;;;20.27;11.83;;;;;;;;;;5042168;28;20280;-77
2022/12/04 13:49:12;;;;;;;23.63;11.77;;;;;;;;;;5046398;28;20328;-76
2022/12/04 13:51:39;;;;;;;25.30;13.17;;;;;;;;;;5040265;28;20267;-76
2022/12/04 13:54:11;;;;;;;20.57;11.97;;;;;;;;;;5038843;28;20297;-76
2022/12/04 13:56:38;;;;;;;24.07;12.87;;;;;;;;;;5041316;28;20264;-76
2022/12/04 13:59:24;;;;;;;21.53;12.77;;;;;;;;;;5048373;28;20815;-75
2022/12/04 14:01:52;;;;;;;24.13;12.80;;;;;;;;;;5046743;28;20260;-75
2022/12/04 14:04:36;;;;;;;22.37;12.47;;;;;;;;;;5054064;28;20017;-77
2022/12/04 14:07:03;;;;;;;23.43;11.30;;;;;;;;;;5057300;28;20063;-75
2022/12/04 14:09:29;;;;;;;24.10;13.07;;;;;;;;;;5071992;28;20110;-76
2022/12/04 14:11:59;;;;;;;25.20;12.97;;;;;;;;;;5061637;28;20385;-77
2022/12/04 14:14:51;;;;;;;23.10;12.80;;;;;;;;;;5055471;28;20032;-75
2022/12/04 14:17:37;;;;;;;22.40;11.77;;;;;;;;;;5071991;28;20047;-75
2022/12/04 14:20:09;;;;;;;24.10;12.20;;;;;;;;;;5044949;28;20029;-75
2022/12/04 14:22:36;;;;;;;24.50;12.90;;;;;;;;;;5062227;28;20039;-74
2022/12/04 14:25:25;;;;;;;25.90;12.87;;;;;;;;;;5056834;28;20494;-78
2022/12/04 14:27:58;;;;;;;22.37;11.80;;;;;;;;;;5031360;28;20041;-75
2022/12/04 14:30:36;;;;;;;23.63;11.63;;;;;;;;;;5053765;28;20036;-76
2022/12/04 14:33:20;;;;;;;22.07;12.10;;;;;;;;;;5055338;28;20112;-77
2022/12/04 14:35:58;;;;;;;45.23;24.00;;;;;;;;;;5053000;28;20151;-75
2022/12/04 14:38:25;;;;;;;20.30;11.57;;;;;;;;;;5049783;28;20052;-75
2022/12/04 14:40:56;;;;;;;22.53;12.03;;;;;;;;;;5062422;28;20024;-75
2022/12/04 14:43:24;;;;;;;18.47;10.77;;;;;;;;;;5065094;28;20389;-77
2022/12/04 14:46:00;;;;;;;17.20;10.43;;;;;;;;;;5055620;28;20086;-76
2022/12/04 14:48:34;;;;;;;20.90;11.43;;;;;;;;;;5057920;28;20078;-74
2022/12/04 14:51:03;;;;;;;22.30;11.77;;;;;;;;;;5048771;28;20068;-74